createdAt,value
2023-03-27T00:00:10.827Z,8.94
2023-03-27T00:02:40.293Z,8.96
2023-03-27T00:05:08.575Z,9.09
2023-03-27T00:07:37.230Z,9.19
2023-03-27T00:10:05.381Z,9.03
2023-03-27T00:12:33.572Z,9.16
2023-03-27T00:15:02.682Z,8.93
2023-03-27T00:17:30.647Z,9.00
2023-03-27T00:19:59.907Z,8.67
2023-03-27T00:22:30.035Z,8.99
2023-03-27T00:24:57.988Z,8.98
2023-03-27T00:27:26.893Z,8.97
2023-03-27T00:29:55.038Z,9.02
2023-03-27T00:32:22.950Z,8.93
2023-03-27T00:34:50.855Z,8.67
2023-03-27T00:37:20.149Z,8.55
2023-03-27T00:39:50.119Z,8.72
2023-03-27T00:42:22.767Z,8.90
2023-03-27T00:44:51.537Z,8.66
2023-03-27T00:47:23.364Z,8.74
2023-03-27T00:49:52.633Z,8.80
2023-03-27T00:52:22.427Z,8.71
2023-03-27T00:54:50.446Z,8.74
2023-03-27T00:57:22.141Z,8.69
2023-03-27T00:59:53.820Z,8.59
2023-03-27T01:02:23.566Z,8.74
2023-03-27T01:04:51.677Z,8.73
2023-03-27T01:07:22.679Z,8.75
2023-03-27T01:09:50.713Z,8.80
2023-03-27T01:12:31.430Z,8.66
2023-03-27T01:15:16.468Z,8.27
2023-03-27T01:17:58.200Z,8.56
2023-03-27T01:20:48.977Z,8.46
2023-03-27T01:24:00.970Z,8.45
2023-03-27T01:26:57.690Z,8.67
2023-03-27T01:29:34.036Z,8.73
2023-03-27T01:32:23.968Z,8.73
2023-03-27T01:35:23.019Z,8.78
2023-03-27T01:38:05.772Z,8.54
2023-03-27T01:40:37.740Z,8.76
2023-03-27T01:43:09.129Z,8.71
2023-03-27T01:45:43.848Z,8.48
2023-03-27T01:48:17.439Z,8.56
2023-03-27T01:50:49.472Z,8.41
2023-03-27T01:53:24.132Z,8.21
2023-03-27T01:55:58.331Z,8.45
2023-03-27T01:58:31.342Z,8.47
2023-03-27T02:01:02.476Z,8.46
2023-03-27T02:03:34.926Z,8.47
2023-03-27T02:06:07.804Z,8.48
2023-03-27T02:08:41.266Z,8.26
2023-03-27T02:11:10.848Z,8.40
2023-03-27T02:13:43.630Z,8.46
2023-03-27T02:16:17.737Z,8.44
2023-03-27T02:18:56.728Z,8.38
2023-03-27T02:21:24.912Z,8.42
2023-03-27T02:23:54.109Z,8.32
2023-03-27T02:26:23.876Z,8.13
2023-03-27T02:29:19.203Z,8.33
2023-03-27T02:32:00.310Z,7.82
2023-03-27T02:34:57.181Z,8.02
2023-03-27T02:37:32.655Z,7.95
2023-03-27T02:40:13.749Z,7.90
2023-03-27T02:42:53.061Z,8.03
2023-03-27T02:45:27.477Z,8.09
2023-03-27T02:48:00.422Z,8.03
2023-03-27T02:50:35.468Z,8.01
2023-03-27T02:53:06.126Z,7.88
2023-03-27T02:55:39.947Z,7.93
2023-03-27T02:58:12.597Z,7.81
2023-03-27T03:00:48.802Z,7.69
2023-03-27T03:03:21.433Z,7.76
2023-03-27T03:05:50.872Z,7.72
2023-03-27T03:08:21.672Z,7.74
2023-03-27T03:10:50.056Z,7.79
2023-03-27T03:13:19.422Z,7.62
2023-03-27T03:15:48.896Z,7.71
2023-03-27T03:18:18.474Z,7.76
2023-03-27T03:20:46.405Z,7.80
2023-03-27T03:23:14.346Z,7.84
2023-03-27T03:25:44.099Z,7.80
2023-03-27T03:28:13.068Z,7.82
2023-03-27T03:30:45.579Z,7.75
2023-03-27T03:33:14.287Z,7.78
2023-03-27T03:35:43.197Z,7.83
2023-03-27T03:38:11.218Z,7.84
2023-03-27T03:40:39.691Z,7.87
2023-03-27T03:43:07.650Z,7.89
2023-03-27T03:45:35.521Z,7.92
2023-03-27T03:48:05.046Z,7.85
2023-03-27T03:50:33.043Z,7.50
2023-03-27T03:53:00.995Z,7.52
2023-03-27T03:55:29.608Z,7.60
2023-03-27T03:57:58.589Z,7.54
2023-03-27T04:00:26.894Z,7.24
2023-03-27T04:02:55.299Z,7.35
2023-03-27T04:05:25.112Z,7.48
2023-03-27T04:07:53.062Z,7.57
2023-03-27T04:10:21.004Z,7.46
2023-03-27T04:12:49.586Z,7.51
2023-03-27T04:15:18.755Z,7.59
2023-03-27T04:17:48.556Z,7.58
2023-03-27T04:20:17.256Z,7.58
2023-03-27T04:22:48.639Z,7.63
2023-03-27T04:25:18.980Z,7.39
2023-03-27T04:27:46.933Z,7.72
2023-03-27T04:30:15.923Z,7.55
2023-03-27T04:32:43.932Z,7.64
2023-03-27T04:35:12.300Z,7.64
2023-03-27T04:37:41.919Z,7.78
2023-03-27T04:40:14.405Z,7.72
2023-03-27T04:42:44.127Z,7.69
2023-03-27T04:45:14.296Z,7.70
2023-03-27T04:47:42.797Z,7.52
2023-03-27T04:50:13.009Z,7.73
2023-03-27T04:52:41.000Z,7.84
2023-03-27T04:55:11.693Z,7.97
2023-03-27T04:57:41.822Z,8.04
2023-03-27T05:00:18.908Z,7.76
2023-03-27T05:02:47.930Z,7.91
2023-03-27T05:05:17.116Z,7.99
2023-03-27T05:07:46.713Z,8.05
2023-03-27T05:10:15.983Z,8.19
2023-03-27T05:12:46.933Z,7.90
2023-03-27T05:15:17.554Z,8.13
2023-03-27T05:17:47.193Z,8.28
2023-03-27T05:20:17.706Z,8.35
2023-03-27T05:22:46.211Z,8.44
2023-03-27T05:25:14.752Z,8.54
2023-03-27T05:27:47.251Z,8.58
2023-03-27T05:30:16.106Z,8.76
2023-03-27T05:32:48.389Z,8.87
2023-03-27T05:35:18.170Z,8.99
2023-03-27T05:37:48.826Z,9.03
2023-03-27T05:40:21.058Z,9.20
2023-03-27T05:42:53.481Z,9.20
2023-03-27T05:45:23.221Z,9.38
2023-03-27T05:47:53.495Z,9.49
2023-03-27T05:50:25.418Z,9.57
2023-03-27T05:52:56.955Z,9.87
2023-03-27T05:55:27.439Z,10.02
2023-03-27T05:57:57.492Z,10.25
2023-03-27T06:00:27.486Z,10.41
2023-03-27T06:02:57.012Z,10.55
2023-03-27T06:05:26.755Z,10.54
2023-03-27T06:07:55.943Z,10.25
2023-03-27T06:10:23.911Z,10.56
2023-03-27T06:13:01.643Z,10.86
2023-03-27T06:15:29.900Z,10.85
2023-03-27T06:17:58.274Z,10.90
2023-03-27T06:20:26.263Z,10.98
2023-03-27T06:22:56.717Z,11.34
2023-03-27T06:25:25.982Z,11.32
2023-03-27T06:27:55.088Z,11.18
2023-03-27T06:30:26.930Z,11.13
2023-03-27T06:32:58.599Z,11.31
2023-03-27T06:35:28.295Z,11.37
2023-03-27T06:37:59.085Z,11.41
2023-03-27T06:40:29.304Z,11.31
2023-03-27T06:42:59.276Z,11.47
2023-03-27T06:45:31.475Z,11.39
2023-03-27T06:48:12.164Z,11.61
2023-03-27T06:50:49.958Z,11.53
2023-03-27T06:55:49.566Z,11.80
2023-03-27T06:58:19.163Z,11.87
2023-03-27T07:00:50.338Z,11.90
2023-03-27T07:03:19.791Z,11.96
2023-03-27T07:05:49.053Z,11.97
2023-03-27T07:08:23.426Z,11.94
2023-03-27T07:11:08.013Z,12.10
2023-03-27T07:13:38.800Z,12.29
2023-03-27T07:16:09.869Z,12.50
2023-03-27T07:18:39.724Z,12.71
2023-03-27T07:21:08.619Z,12.99
2023-03-27T07:23:37.840Z,13.36
2023-03-27T07:26:06.363Z,13.61
2023-03-27T07:28:34.265Z,13.88
2023-03-27T07:31:16.739Z,13.96
2023-03-27T07:33:58.154Z,14.00
2023-03-27T07:36:26.550Z,14.18
2023-03-27T07:38:54.438Z,14.20
2023-03-27T07:41:23.001Z,14.36
2023-03-27T07:43:50.968Z,14.49
2023-03-27T07:46:18.930Z,14.21
2023-03-27T07:48:47.050Z,14.33
2023-03-27T07:51:17.098Z,14.16
2023-03-27T07:53:45.513Z,14.49
2023-03-27T07:56:13.975Z,14.42
2023-03-27T07:58:43.025Z,14.48
2023-03-27T08:01:11.677Z,14.63
2023-03-27T08:03:41.777Z,14.47
2023-03-27T08:06:10.573Z,14.60
2023-03-27T08:08:39.864Z,14.79
2023-03-27T08:11:16.101Z,14.83
2023-03-27T08:13:51.471Z,14.88
2023-03-27T08:16:20.932Z,14.92
2023-03-27T08:18:49.792Z,15.06
2023-03-27T08:21:17.938Z,14.99
2023-03-27T08:23:47.792Z,14.92
2023-03-27T08:26:16.078Z,14.93
2023-03-27T08:28:44.077Z,15.01
2023-03-27T08:31:14.823Z,15.09
2023-03-27T08:33:43.929Z,15.04
2023-03-27T08:36:14.443Z,15.11
2023-03-27T08:38:44.205Z,15.10
2023-03-27T08:41:38.767Z,15.03
2023-03-27T08:44:11.959Z,14.98
2023-03-27T08:46:44.373Z,14.86
2023-03-27T08:49:18.465Z,14.63
2023-03-27T08:51:50.578Z,14.61
2023-03-27T08:54:21.679Z,14.31
2023-03-27T08:56:52.574Z,14.52
2023-03-27T08:59:23.320Z,14.49
2023-03-27T09:01:59.163Z,14.52
2023-03-27T09:04:42.207Z,14.50
2023-03-27T09:07:15.186Z,14.90
2023-03-27T09:09:56.212Z,15.01
2023-03-27T09:12:39.969Z,15.27
2023-03-27T09:15:14.361Z,15.51
2023-03-27T09:17:47.378Z,15.67
2023-03-27T09:20:19.196Z,15.89
2023-03-27T09:22:52.879Z,16.15
2023-03-27T09:25:25.544Z,15.95
2023-03-27T09:27:55.130Z,14.79
2023-03-27T09:30:27.491Z,14.22
2023-03-27T09:32:59.201Z,14.04
2023-03-27T09:35:27.439Z,14.04
2023-03-27T09:38:00.200Z,13.98
2023-03-27T09:40:33.914Z,14.07
2023-03-27T09:43:14.799Z,14.09
2023-03-27T09:45:46.087Z,14.12
2023-03-27T09:48:21.824Z,14.09
2023-03-27T09:50:49.891Z,14.18
2023-03-27T09:53:21.041Z,14.27
2023-03-27T09:55:53.022Z,14.39
2023-03-27T09:58:40.889Z,14.63
2023-03-27T10:01:13.485Z,14.74
2023-03-27T10:03:45.872Z,14.91
2023-03-27T10:06:17.245Z,15.15
2023-03-27T10:08:50.016Z,15.03
2023-03-27T10:11:20.475Z,14.82
2023-03-27T10:13:52.185Z,14.71
2023-03-27T10:16:22.517Z,14.65
2023-03-27T10:18:53.651Z,14.48
2023-03-27T10:21:28.075Z,14.60
2023-03-27T10:24:02.851Z,13.93
2023-03-27T10:26:37.020Z,13.64
2023-03-27T10:29:23.059Z,13.46
2023-03-27T10:31:54.278Z,13.29
2023-03-27T10:34:36.542Z,13.33
2023-03-27T10:37:19.394Z,13.54
2023-03-27T10:39:48.030Z,14.11
2023-03-27T10:42:18.093Z,14.49
2023-03-27T10:44:49.508Z,14.91
2023-03-27T10:47:20.942Z,15.10
2023-03-27T10:49:57.958Z,15.42
2023-03-27T10:52:34.983Z,15.52
2023-03-27T10:55:15.734Z,15.63
2023-03-27T10:57:48.154Z,15.81
2023-03-27T11:00:32.660Z,15.77
2023-03-27T11:03:09.597Z,15.61
2023-03-27T11:05:41.418Z,15.57
2023-03-27T11:08:14.916Z,15.54
2023-03-27T11:10:44.721Z,15.37
2023-03-27T11:13:18.219Z,15.19
2023-03-27T11:15:54.240Z,14.20
2023-03-27T11:18:26.580Z,13.78
2023-03-27T11:20:59.746Z,13.25
2023-03-27T11:23:35.073Z,13.08
2023-03-27T11:26:06.093Z,12.71
2023-03-27T11:28:42.995Z,12.40
2023-03-27T11:31:24.528Z,12.29
2023-03-27T11:33:56.425Z,12.12
2023-03-27T11:36:37.719Z,12.08
2023-03-27T11:39:24.006Z,11.58
2023-03-27T11:41:57.302Z,11.53
2023-03-27T11:44:26.539Z,11.27
2023-03-27T11:47:20.398Z,11.45
2023-03-27T11:49:59.951Z,11.42
2023-03-27T11:52:41.093Z,11.38
2023-03-27T11:55:21.966Z,11.30
2023-03-27T11:58:07.161Z,11.11
2023-03-27T12:00:39.555Z,9.98
2023-03-27T12:03:33.519Z,9.27
2023-03-27T12:06:14.864Z,8.74
2023-03-27T12:09:07.364Z,7.93
2023-03-27T12:11:43.096Z,7.39
2023-03-27T12:14:46.668Z,7.17
2023-03-27T12:17:43.631Z,7.01
2023-03-27T12:20:51.908Z,6.64
2023-03-27T12:23:57.709Z,6.80
2023-03-27T12:26:56.470Z,6.70
2023-03-27T12:29:49.190Z,6.52
2023-03-27T12:32:31.106Z,6.49
2023-03-27T12:35:03.805Z,6.29
2023-03-27T12:37:40.170Z,6.26
2023-03-27T12:40:26.052Z,5.92
2023-03-27T12:42:56.239Z,5.91
2023-03-27T12:45:27.529Z,5.95
2023-03-27T12:48:18.437Z,5.91
2023-03-27T12:50:55.615Z,5.89
2023-03-27T12:53:55.427Z,6.04
2023-03-27T12:56:32.233Z,6.37
2023-03-27T12:59:01.411Z,6.59
2023-03-27T13:02:02.038Z,6.61
2023-03-27T13:04:58.304Z,7.09
2023-03-27T13:07:33.636Z,7.47
2023-03-27T13:10:20.535Z,7.73
2023-03-27T13:13:17.201Z,8.03
2023-03-27T13:16:06.044Z,8.12
2023-03-27T13:19:03.788Z,8.29
2023-03-27T13:21:40.227Z,8.31
2023-03-27T13:24:36.811Z,8.48
2023-03-27T13:27:24.640Z,8.46
2023-03-27T13:29:53.936Z,8.56
2023-03-27T13:32:34.869Z,8.65
2023-03-27T13:35:27.193Z,8.74
2023-03-27T13:38:00.795Z,8.77
2023-03-27T13:40:33.136Z,8.81
2023-03-27T13:43:18.558Z,8.65
2023-03-27T13:45:50.072Z,8.89
2023-03-27T13:48:50.669Z,8.97
2023-03-27T13:51:33.474Z,9.10
2023-03-27T13:54:42.588Z,9.04
2023-03-27T13:57:34.394Z,9.15
2023-03-27T14:00:42.769Z,9.33
2023-03-27T14:03:38.723Z,9.34
2023-03-27T14:06:38.508Z,9.43
2023-03-27T14:09:17.283Z,9.48
2023-03-27T14:11:58.275Z,9.57
2023-03-27T14:14:52.379Z,9.60
2023-03-27T14:17:49.698Z,9.60
2023-03-27T14:20:24.794Z,9.59
2023-03-27T14:22:58.024Z,9.67
2023-03-27T14:25:34.198Z,9.69
2023-03-27T14:28:02.638Z,9.82
2023-03-27T14:30:34.743Z,9.80
2023-03-27T14:33:08.821Z,9.91
2023-03-27T14:35:39.154Z,9.86
2023-03-27T14:38:09.082Z,9.97
2023-03-27T14:40:42.586Z,9.99
2023-03-27T14:43:13.399Z,9.76
2023-03-27T14:45:42.092Z,9.60
2023-03-27T14:48:21.186Z,9.56
2023-03-27T14:50:50.362Z,9.40
2023-03-27T14:53:26.101Z,9.68
2023-03-27T14:55:55.527Z,9.64
2023-03-27T14:58:25.819Z,9.66
2023-03-27T15:00:58.068Z,9.50
2023-03-27T15:03:30.206Z,9.58
2023-03-27T15:06:02.011Z,9.59
2023-03-27T15:08:36.912Z,9.44
2023-03-27T15:11:12.194Z,9.52
2023-03-27T15:13:42.536Z,9.56
2023-03-27T15:16:16.073Z,9.56
2023-03-27T15:19:04.936Z,9.39
2023-03-27T15:21:39.211Z,9.28
2023-03-27T15:24:11.402Z,9.19
2023-03-27T15:26:39.543Z,9.24
2023-03-27T15:29:13.911Z,9.15
2023-03-27T15:31:44.382Z,9.13
2023-03-27T15:34:23.338Z,9.12
2023-03-27T15:36:58.499Z,9.12
2023-03-27T15:39:27.338Z,9.07
2023-03-27T15:42:04.169Z,8.98
2023-03-27T15:44:33.966Z,8.81
2023-03-27T15:47:02.105Z,9.00
2023-03-27T15:49:33.613Z,8.97
2023-03-27T15:52:22.171Z,9.05
2023-03-27T15:54:55.854Z,9.08
2023-03-27T15:57:25.413Z,8.92
2023-03-27T15:59:53.852Z,8.94
2023-03-27T16:02:25.050Z,9.01
2023-03-27T16:04:57.184Z,9.06
2023-03-27T16:07:30.188Z,9.06
2023-03-27T16:10:02.519Z,9.02
2023-03-27T16:12:34.118Z,9.07
2023-03-27T16:15:08.133Z,9.00
2023-03-27T16:17:45.923Z,9.03
2023-03-27T16:20:37.429Z,9.02
2023-03-27T16:23:06.276Z,8.92
2023-03-27T16:25:34.494Z,8.88
2023-03-27T16:28:03.079Z,8.92
2023-03-27T16:30:34.355Z,8.93
2023-03-27T16:33:02.929Z,8.92
2023-03-27T16:35:32.597Z,8.91
2023-03-27T16:38:02.034Z,8.94
2023-03-27T16:40:29.935Z,8.99
2023-03-27T16:42:57.849Z,8.98
2023-03-27T16:45:26.581Z,8.95
2023-03-27T16:47:54.891Z,8.79
2023-03-27T16:50:25.054Z,8.72
2023-03-27T16:52:53.332Z,8.57
2023-03-27T16:55:22.985Z,8.64
2023-03-27T16:57:52.485Z,8.65
2023-03-27T17:00:21.316Z,8.77
2023-03-27T17:02:49.282Z,8.73
2023-03-27T17:05:17.606Z,8.65
2023-03-27T17:07:46.952Z,8.72
2023-03-27T17:10:15.098Z,8.65
2023-03-27T17:12:44.993Z,8.70
2023-03-27T17:15:16.260Z,8.57
2023-03-27T17:17:46.045Z,8.62
2023-03-27T17:20:14.800Z,8.70
2023-03-27T17:22:43.094Z,8.65
2023-03-27T17:25:11.905Z,8.73
2023-03-27T17:27:40.448Z,8.85
2023-03-27T17:30:11.146Z,8.82
2023-03-27T17:32:39.777Z,8.76
2023-03-27T17:35:08.339Z,8.80
2023-03-27T17:37:37.114Z,8.77
2023-03-27T17:40:09.556Z,8.69
2023-03-27T17:42:38.229Z,8.50
2023-03-27T17:45:07.408Z,8.51
2023-03-27T17:47:37.012Z,8.53
2023-03-27T17:50:05.718Z,8.40
2023-03-27T17:52:34.875Z,8.47
2023-03-27T17:55:02.921Z,8.39
2023-03-27T17:57:31.135Z,8.39
2023-03-27T17:59:59.218Z,8.44
2023-03-27T18:02:27.863Z,8.40
2023-03-27T18:04:57.291Z,8.30
2023-03-27T18:07:26.134Z,8.31
2023-03-27T18:09:54.918Z,8.05
2023-03-27T18:12:22.833Z,8.13
2023-03-27T18:14:50.990Z,8.17
2023-03-27T18:17:21.092Z,7.93
2023-03-27T18:19:49.335Z,7.35
2023-03-27T18:22:18.853Z,7.02
2023-03-27T18:24:47.404Z,6.74
2023-03-27T18:27:16.552Z,6.47
2023-03-27T18:29:44.509Z,6.06
2023-03-27T18:32:13.723Z,5.86
2023-03-27T18:34:41.716Z,5.66
2023-03-27T18:37:09.659Z,5.53
2023-03-27T18:39:39.029Z,5.44
2023-03-27T18:42:08.657Z,5.45
2023-03-27T18:44:39.167Z,5.31
2023-03-27T18:47:08.931Z,5.15
2023-03-27T18:49:37.334Z,5.18
2023-03-27T18:52:06.266Z,5.21
2023-03-27T18:54:34.268Z,5.21
2023-03-27T18:57:03.888Z,5.19
2023-03-27T18:59:31.998Z,5.18
2023-03-27T19:01:59.987Z,5.08
2023-03-27T19:04:27.945Z,5.10
2023-03-27T19:07:08.365Z,5.12
2023-03-27T19:09:41.358Z,5.16
2023-03-27T19:12:13.174Z,5.29
2023-03-27T19:14:43.987Z,5.10
2023-03-27T19:17:14.937Z,5.32
2023-03-27T19:19:45.837Z,5.26
2023-03-27T19:22:14.590Z,5.33
2023-03-27T19:24:43.175Z,5.44
2023-03-27T19:27:23.758Z,5.49
2023-03-27T19:29:52.773Z,5.46
2023-03-27T19:32:21.154Z,5.51
2023-03-27T19:34:49.340Z,5.48
2023-03-27T19:37:25.787Z,5.54
2023-03-27T19:39:54.629Z,5.50
2023-03-27T19:42:42.511Z,5.60
2023-03-27T19:45:16.393Z,5.39
2023-03-27T19:47:56.436Z,5.51
2023-03-27T19:50:25.596Z,5.57
2023-03-27T19:53:07.429Z,5.59
2023-03-27T19:55:37.401Z,5.64
2023-03-27T19:58:07.615Z,5.63
2023-03-27T20:00:38.823Z,5.60
2023-03-27T20:03:10.664Z,5.51
2023-03-27T20:05:40.196Z,5.53
2023-03-27T20:08:08.234Z,5.38
2023-03-27T20:10:36.103Z,5.61
2023-03-27T20:13:04.349Z,5.59
2023-03-27T20:15:33.805Z,5.45
2023-03-27T20:18:02.704Z,5.18
2023-03-27T20:20:31.678Z,5.49
2023-03-27T20:23:01.671Z,5.44
2023-03-27T20:25:33.696Z,5.49
2023-03-27T20:28:01.967Z,5.31
2023-03-27T20:30:30.623Z,5.42
2023-03-27T20:33:03.157Z,5.26
2023-03-27T20:38:53.141Z,5.24
2023-03-27T20:41:21.885Z,5.15
2023-03-27T20:43:57.755Z,5.08
2023-03-27T20:46:30.754Z,5.06
2023-03-27T20:49:00.170Z,4.91
2023-03-27T20:51:28.096Z,4.92
2023-03-27T20:53:58.218Z,4.67
2023-03-27T20:56:27.100Z,4.81
2023-03-27T20:59:14.528Z,4.67
2023-03-27T21:01:44.213Z,4.60
2023-03-27T21:04:16.068Z,4.71
2023-03-27T21:06:44.911Z,4.71
2023-03-27T21:09:14.203Z,4.70
2023-03-27T21:11:42.425Z,4.60
2023-03-27T21:14:10.346Z,4.43
2023-03-27T21:16:38.722Z,4.55
2023-03-27T21:19:06.815Z,4.71
2023-03-27T21:21:36.305Z,4.67
2023-03-27T21:24:04.380Z,4.68
2023-03-27T21:26:32.334Z,4.69
2023-03-27T21:29:00.510Z,4.70
2023-03-27T21:31:28.656Z,4.76
2023-03-27T21:33:56.670Z,4.78
2023-03-27T21:36:26.508Z,4.74
2023-03-27T21:38:57.337Z,4.77
2023-03-27T21:41:26.618Z,4.73
2023-03-27T21:43:54.637Z,4.75
2023-03-27T21:46:22.710Z,4.76
2023-03-27T21:51:46.943Z,4.72
2023-03-27T21:54:16.178Z,4.70
2023-03-27T21:56:44.177Z,4.71
2023-03-27T21:59:12.157Z,4.68
2023-03-27T22:01:40.107Z,4.68
2023-03-27T22:04:08.349Z,4.70
2023-03-27T22:06:36.704Z,4.68
2023-03-27T22:09:04.907Z,4.77
2023-03-27T22:11:34.221Z,4.66
2023-03-27T22:14:02.124Z,4.65
2023-03-27T22:16:30.459Z,4.64
2023-03-27T22:18:58.379Z,4.57
2023-03-27T22:21:29.166Z,4.59
2023-03-27T22:23:58.738Z,4.38
2023-03-27T22:26:28.960Z,4.47
2023-03-27T22:28:58.257Z,4.42
2023-03-27T22:31:27.230Z,4.29
2023-03-27T22:33:55.219Z,4.12
2023-03-27T22:36:23.476Z,3.95
2023-03-27T22:38:51.454Z,3.82
2023-03-27T22:41:19.752Z,3.74
2023-03-27T22:43:49.645Z,3.70
2023-03-27T22:46:22.283Z,3.57
2023-03-27T22:48:55.269Z,3.49
2023-03-27T22:51:23.773Z,3.36
2023-03-27T22:53:52.330Z,3.25
2023-03-27T22:56:20.761Z,3.09
2023-03-27T22:58:48.703Z,2.83
2023-03-27T23:01:16.703Z,2.70
2023-03-27T23:03:46.581Z,2.42
2023-03-27T23:06:18.857Z,2.54
2023-03-27T23:08:47.149Z,2.35
2023-03-27T23:11:15.205Z,2.31
2023-03-27T23:17:37.332Z,2.22
2023-03-27T23:20:07.451Z,2.18
2023-03-27T23:22:35.380Z,2.17
2023-03-27T23:25:03.398Z,2.05
2023-03-27T23:27:31.322Z,2.08
2023-03-27T23:29:59.366Z,2.05
2023-03-27T23:32:29.827Z,2.04
2023-03-27T23:34:57.923Z,2.03
2023-03-27T23:37:29.573Z,2.01
2023-03-27T23:39:57.543Z,1.94
2023-03-27T23:42:25.502Z,2.00
2023-03-27T23:44:53.402Z,1.91
2023-03-27T23:47:21.402Z,1.94
2023-03-27T23:49:49.482Z,1.85
2023-03-27T23:52:19.455Z,1.90
2023-03-27T23:54:48.817Z,1.84
2023-03-27T23:57:16.787Z,1.79
2023-03-27T23:59:44.721Z,1.82
